Time;durP1;ratioP1;P1;durP2;ratioP2;P2;SDS_P1;SDS_P2;PMS_P1;PMS_P2;Temp;Humidity;BMP_temperature;BMP_pressure;BME280_temperature;BME280_humidity;BME280_pressure;Samples;Min_cycle;Max_cycle;Signal;HPM_P1;HPM_P2
2022/01/29 00:02:07;;;;;;;11.32;4.65;;;;;;;2.34;41.96;95517.41;5004896;28;20124;-91
2022/01/29 00:04:33;;;;;;;9.95;4.43;;;;;;;2.05;43.35;95519.13;5020811;28;20032;-91
2022/01/29 00:06:59;;;;;;;12.43;5.00;;;;;;;1.87;42.21;95518.78;5020646;28;20028;-92
2022/01/29 00:09:24;;;;;;;9.70;4.68;;;;;;;2.01;42.06;95523.09;5004773;28;20116;-91
2022/01/29 00:11:50;;;;;;;11.70;4.63;;;;;;;1.91;42.94;95517.41;5020449;28;20119;-92
2022/01/29 00:14:15;;;;;;;10.55;5.18;;;;;;;1.74;45.66;95515.06;5020607;28;20031;-91
2022/01/29 00:16:41;;;;;;;12.75;4.78;;;;;;;1.51;45.05;95513.41;5004330;28;20025;-92
2022/01/29 00:19:06;;;;;;;10.00;4.50;;;;;;;1.25;44.25;95521.66;5004310;28;20025;-91
2022/01/29 00:21:32;;;;;;;12.75;5.22;;;;;;;1.07;45.90;95522.81;5020290;28;20049;-92
2022/01/29 00:23:57;;;;;;;11.13;4.55;;;;;;;1.25;43.97;95512.13;5004412;28;20064;-91
2022/01/29 00:26:25;;;;;;;13.07;4.93;;;;;;;1.02;45.23;95511.44;5037908;28;20036;-92
2022/01/29 00:28:51;;;;;;;13.98;5.32;;;;;;;0.94;47.68;95507.97;5004422;28;20029;-92
2022/01/29 00:31:18;;;;;;;11.88;5.32;;;;;;;0.90;46.03;95511.88;5037691;28;20328;-91
2022/01/29 00:33:43;;;;;;;17.63;5.97;;;;;;;0.86;46.85;95508.03;5003895;28;20102;-91
2022/01/29 00:36:09;;;;;;;18.85;7.20;;;;;;;0.75;47.62;95505.91;5004439;28;20029;-91
2022/01/29 00:38:35;;;;;;;21.52;8.02;;;;;;;0.78;48.32;95497.81;5020040;28;20033;-91
2022/01/29 00:41:01;;;;;;;17.33;7.32;;;;;;;0.89;47.96;95510.28;5003666;28;20037;-92
2022/01/29 00:43:27;;;;;;;13.18;5.53;;;;;;;1.36;44.77;95503.13;5003531;28;20041;-91
2022/01/29 00:45:52;;;;;;;11.95;4.57;;;;;;;1.96;42.20;95509.91;5019939;28;20395;-92
2022/01/29 00:48:18;;;;;;;9.13;4.03;;;;;;;1.82;41.85;95506.41;5020050;28;20033;-92
2022/01/29 00:50:43;;;;;;;10.73;4.38;;;;;;;1.78;42.45;95511.13;5019801;28;20492;-91
2022/01/29 00:53:09;;;;;;;9.68;3.60;;;;;;;1.55;44.45;95501.72;5037358;28;20037;-91
2022/01/29 00:55:34;;;;;;;10.02;4.20;;;;;;;1.49;43.98;95502.47;5019772;28;20041;-90
2022/01/29 00:58:00;;;;;;;8.52;3.63;;;;;;;1.30;43.69;95503.03;5019794;28;20061;-90
2022/01/29 01:00:26;;;;;;;9.43;4.15;;;;;;;1.07;44.81;95509.13;5019852;28;20355;-91
2022/01/29 01:02:51;;;;;;;13.82;4.88;;;;;;;0.97;44.37;95504.22;5019935;28;20025;-91
2022/01/29 01:05:17;;;;;;;11.80;4.20;;;;;;;0.91;45.84;95500.56;5003381;28;20125;-91
2022/01/29 01:07:42;;;;;;;8.85;4.13;;;;;;;0.88;45.12;95515.59;5003480;28;20036;-92
2022/01/29 01:10:10;;;;;;;9.23;3.65;;;;;;;0.98;44.57;95506.59;5019579;28;20056;-91
2022/01/29 01:12:36;;;;;;;8.85;3.70;;;;;;;0.89;43.95;95509.47;5003278;28;20457;-91
2022/01/29 01:15:02;;;;;;;11.60;4.45;;;;;;;0.86;44.33;95505.44;5019386;28;20116;-91
2022/01/29 01:17:28;;;;;;;11.15;4.57;;;;;;;1.01;43.67;95502.09;5019486;28;20037;-91
2022/01/29 01:19:53;;;;;;;16.35;4.35;;;;;;;1.19;42.72;95506.88;5003202;28;20040;-91
2022/01/29 01:22:20;;;;;;;11.23;4.10;;;;;;;1.34;41.61;95510.22;5003453;28;20112;-92
2022/01/29 01:24:47;;;;;;;8.95;3.70;;;;;;;1.68;40.46;95513.19;5003096;28;20033;-91
2022/01/29 01:27:13;;;;;;;8.23;3.70;;;;;;;1.64;40.23;95511.97;5003177;28;20123;-91
2022/01/29 01:29:38;;;;;;;8.13;3.53;;;;;;;1.56;39.70;95510.28;5003386;28;20457;-91
2022/01/29 01:32:05;;;;;;;6.93;3.05;;;;;;;1.94;38.65;95512.69;5002888;28;20500;-91
2022/01/29 01:34:35;;;;;;;8.90;3.85;;;;;;;1.84;39.99;95510.38;5002954;28;20095;-91
2022/01/29 01:37:07;;;;;;;12.32;3.55;;;;;;;1.73;40.47;95515.22;5019825;28;20040;-91
2022/01/29 01:39:35;;;;;;;8.25;3.08;;;;;;;1.58;41.36;95507.50;5020079;28;20025;-91
2022/01/29 01:42:07;;;;;;;7.38;3.42;;;;;;;1.68;41.54;95514.00;5003617;28;20098;-92
2022/01/29 01:44:46;;;;;;;8.38;3.45;;;;;;;1.36;41.41;95513.47;5019648;28;20030;-91
2022/01/29 01:47:13;;;;;;;13.02;3.80;;;;;;;1.32;40.18;95508.81;5019326;28;20118;-92
2022/01/29 01:49:39;;;;;;;9.27;3.88;;;;;;;1.43;40.19;95523.84;5018962;28;20033;-91
2022/01/29 01:52:07;;;;;;;11.38;4.30;;;;;;;1.57;39.49;95504.13;5036504;28;20401;-92
2022/01/29 01:54:33;;;;;;;10.55;4.55;;;;;;;1.85;39.51;95518.94;5019573;28;20037;-92
2022/01/29 01:57:00;;;;;;;9.45;4.25;;;;;;;2.38;37.33;95513.44;5018925;28;20140;-91
2022/01/29 01:59:26;;;;;;;9.85;4.18;;;;;;;2.51;37.61;95506.78;5019112;28;20124;-91
2022/01/29 02:01:52;;;;;;;8.95;3.92;;;;;;;2.48;37.73;95512.34;5002786;28;20029;-91
2022/01/29 02:04:20;;;;;;;8.68;3.55;;;;;;;2.47;37.18;95505.56;4999642;28;20350;-92
2022/01/29 02:06:46;;;;;;;10.43;4.63;;;;;;;2.26;40.43;95505.41;4999626;28;20029;-92
2022/01/29 02:09:14;;;;;;;10.05;4.28;;;;;;;1.78;40.58;95502.56;4999260;28;20030;-92
2022/01/29 02:11:52;;;;;;;11.40;5.05;;;;;;;1.33;42.12;95497.50;5000342;28;20128;-92
2022/01/29 02:14:19;;;;;;;10.00;4.13;;;;;;;1.12;42.16;95499.03;4983250;28;20037;-91
2022/01/29 02:16:45;;;;;;;10.02;4.28;;;;;;;1.29;41.81;95494.50;4983369;28;20076;-91
2022/01/29 02:19:11;;;;;;;11.27;3.65;;;;;;;1.20;41.05;95501.53;4999234;28;20057;-92
2022/01/29 02:21:36;;;;;;;11.48;4.35;;;;;;;1.23;40.77;95495.22;4983472;28;20030;-91
2022/01/29 02:24:02;;;;;;;7.90;3.55;;;;;;;1.03;40.39;95490.59;4999548;28;20068;-92
2022/01/29 02:26:28;;;;;;;9.82;3.83;;;;;;;0.83;42.05;95480.00;4999214;28;20050;-92
2022/01/29 02:28:54;;;;;;;8.43;3.45;;;;;;;0.77;42.17;95478.16;4999229;28;20034;-92
2022/01/29 02:31:20;;;;;;;11.52;4.30;;;;;;;0.73;41.01;95471.75;4983488;28;20034;-92
2022/01/29 02:33:46;;;;;;;10.60;3.80;;;;;;;0.85;40.29;95467.72;4999116;28;20029;-91
2022/01/29 02:36:11;;;;;;;9.05;3.80;;;;;;;0.73;40.31;95458.84;4983449;28;20026;-92
2022/01/29 02:38:37;;;;;;;9.25;3.60;;;;;;;0.77;40.25;95460.09;4982987;28;20026;-91
2022/01/29 02:41:05;;;;;;;7.25;3.28;;;;;;;0.75;40.24;95459.47;4999005;28;20069;-92
2022/01/29 02:43:42;;;;;;;9.50;3.28;;;;;;;0.50;43.50;95449.41;4983437;28;20072;-91
2022/01/29 02:48:53;;;;;;;8.18;2.65;;;;;;;0.16;44.15;95458.44;5015418;28;20435;-91
2022/01/29 02:51:19;;;;;;;9.32;3.08;;;;;;;0.25;42.13;95457.38;4998885;28;20030;-91
2022/01/29 02:53:45;;;;;;;9.77;3.20;;;;;;;0.13;42.33;95459.56;4998770;28;20026;-92
2022/01/29 02:56:11;;;;;;;7.43;3.03;;;;;;;0.10;41.95;95458.13;5015473;28;20126;-91
2022/01/29 02:58:36;;;;;;;9.82;3.28;;;;;;;0.19;41.43;95464.03;5001829;28;20054;-91
2022/01/29 03:01:03;;;;;;;7.55;2.80;;;;;;;0.27;40.52;95452.84;5002522;28;20029;-91
2022/01/29 03:03:29;;;;;;;5.32;2.45;;;;;;;0.23;40.41;95443.84;4986103;28;20040;-91
2022/01/29 03:05:54;;;;;;;7.28;3.22;;;;;;;0.31;40.79;95454.09;4986178;28;20017;-90
2022/01/29 03:08:20;;;;;;;7.70;3.00;;;;;;;0.32;40.47;95444.59;5019541;28;20049;-91
2022/01/29 03:10:48;;;;;;;6.35;2.90;;;;;;;0.58;40.02;95462.22;4985975;28;20026;-92
2022/01/29 03:13:15;;;;;;;10.10;3.60;;;;;;;0.30;40.75;95446.53;4986279;28;20029;-92
2022/01/29 03:15:40;;;;;;;6.97;3.10;;;;;;;0.10;41.35;95460.72;5002120;28;20026;-92
2022/01/29 03:18:05;;;;;;;7.35;3.05;;;;;;;0.03;41.54;95462.41;5019716;28;20018;-91
2022/01/29 03:20:31;;;;;;;7.57;3.28;;;;;;;0.20;41.11;95445.00;4985511;28;20390;-92
2022/01/29 03:22:57;;;;;;;6.20;2.80;;;;;;;0.28;40.84;95446.69;5001959;28;20398;-91
2022/01/29 03:25:23;;;;;;;6.65;2.50;;;;;;;0.22;40.83;95453.38;5001954;28;20439;-91
2022/01/29 03:27:48;;;;;;;6.45;2.53;;;;;;;0.24;41.37;95461.75;5001741;28;20022;-92
2022/01/29 03:30:14;;;;;;;7.85;2.97;;;;;;;0.16;40.94;95472.09;4985945;28;20120;-92
2022/01/29 03:32:39;;;;;;;7.03;2.35;;;;;;;0.27;40.85;95473.47;5017980;28;20054;-91
2022/01/29 03:35:05;;;;;;;7.95;2.25;;;;;;;0.37;39.69;95468.06;4985847;28;20025;-91
2022/01/29 03:37:38;;;;;;;5.38;2.47;;;;;;;0.51;38.38;95472.44;5001744;28;20021;-91
2022/01/29 03:40:06;;;;;;;5.25;2.45;;;;;;;0.59;40.16;95470.75;4985801;28;20034;-90
2022/01/29 03:42:37;;;;;;;6.45;2.30;;;;;;;0.55;39.11;95473.69;5001672;28;20029;-93
2022/01/29 03:45:05;;;;;;;4.57;2.38;;;;;;;0.60;37.66;95482.66;5002224;28;20125;-91
2022/01/29 03:47:31;;;;;;;4.28;2.00;;;;;;;0.72;37.35;95481.25;4985549;28;20022;-91
2022/01/29 03:49:56;;;;;;;5.10;2.10;;;;;;;0.77;36.99;95478.94;4985416;28;20033;-91
2022/01/29 03:52:22;;;;;;;6.35;2.40;;;;;;;0.73;37.51;95475.13;5001248;28;20025;-91
2022/01/29 03:54:47;;;;;;;4.30;1.70;;;;;;;0.64;38.33;95478.75;5001341;28;20030;-91
2022/01/29 03:57:13;;;;;;;3.80;1.63;;;;;;;0.52;38.12;95483.56;5001284;28;20026;-91
2022/01/29 03:59:38;;;;;;;5.68;1.92;;;;;;;0.41;40.26;95477.84;5001115;28;20075;-91
2022/01/29 04:02:04;;;;;;;5.85;2.05;;;;;;;0.24;40.45;95481.53;4985081;28;20021;-92
2022/01/29 04:04:31;;;;;;;6.93;2.33;;;;;;;0.15;40.10;95482.63;4985445;28;20026;-91
2022/01/29 04:07:04;;;;;;;6.15;2.13;;;;;;;0.19;39.32;95466.59;5018525;28;20025;-91
2022/01/29 04:09:30;;;;;;;3.70;1.85;;;;;;;0.28;40.24;95480.22;4985493;28;20029;-91
2022/01/29 04:11:55;;;;;;;6.07;2.17;;;;;;;0.14;40.46;95484.38;5000892;28;20379;-91
2022/01/29 04:14:21;;;;;;;4.60;2.00;;;;;;;0.15;40.52;95480.81;4984611;28;20038;-91
2022/01/29 04:16:46;;;;;;;4.78;2.20;;;;;;;0.01;40.25;95487.53;5000844;28;20101;-92
2022/01/29 04:19:12;;;;;;;5.82;2.88;;;;;;;-0.10;42.39;95475.06;4984873;28;20158;-91
2022/01/29 04:21:38;;;;;;;8.30;2.15;;;;;;;-0.15;41.68;95478.94;5000996;28;20120;-90
2022/01/29 04:24:04;;;;;;;8.07;2.35;;;;;;;-0.07;41.66;95478.09;5017082;28;20030;-91
2022/01/29 04:26:35;;;;;;;5.72;2.22;;;;;;;-0.24;42.20;95481.75;5000829;28;20029;-91
2022/01/29 04:29:03;;;;;;;4.82;1.98;;;;;;;-0.16;39.64;95479.13;5000753;28;20029;-91
2022/01/29 04:31:37;;;;;;;4.82;1.92;;;;;;;0.13;39.84;95485.34;5016881;28;20027;-91
2022/01/29 04:34:03;;;;;;;3.28;1.60;;;;;;;0.10;38.94;95475.41;4985738;28;20331;-91
2022/01/29 04:36:29;;;;;;;3.60;1.90;;;;;;;0.31;38.88;95482.47;5016835;28;20026;-92
2022/01/29 04:38:54;;;;;;;5.43;2.17;;;;;;;0.21;38.41;95489.63;4984429;28;20099;-92
2022/01/29 04:41:21;;;;;;;5.60;2.00;;;;;;;0.46;37.56;95477.31;4984441;28;20444;-91
2022/01/29 04:43:47;;;;;;;5.60;2.03;;;;;;;0.51;39.48;95472.44;5000668;28;20344;-92
2022/01/29 04:46:13;;;;;;;5.18;2.00;;;;;;;0.44;38.17;95466.38;5000203;28;20033;-91
2022/01/29 04:48:38;;;;;;;4.97;2.10;;;;;;;0.58;37.92;95480.28;5000291;28;20443;-91
2022/01/29 04:51:04;;;;;;;5.10;1.67;;;;;;;0.34;38.13;95478.72;4984354;28;20475;-91
2022/01/29 04:53:29;;;;;;;4.03;1.73;;;;;;;0.15;38.46;95474.88;5000140;28;20057;-91
2022/01/29 04:55:55;;;;;;;4.10;1.85;;;;;;;0.18;39.69;95472.72;4984394;28;20029;-91
2022/01/29 04:58:20;;;;;;;4.18;1.65;;;;;;;0.11;38.48;95474.41;5000031;28;20057;-92
2022/01/29 05:00:46;;;;;;;5.53;2.00;;;;;;;0.28;39.71;95472.47;4984062;28;20541;-92
2022/01/29 05:03:13;;;;;;;5.63;2.08;;;;;;;0.38;39.36;95474.84;5000028;28;20344;-91
2022/01/29 05:05:40;;;;;;;5.65;1.92;;;;;;;0.04;39.48;95476.88;4983953;28;20037;-91
2022/01/29 05:08:06;;;;;;;3.45;1.70;;;;;;;0.04;41.88;95486.38;5000135;28;20026;-92
2022/01/29 05:10:32;;;;;;;6.15;2.08;;;;;;;0.07;42.96;95486.03;4983813;28;20113;-92
2022/01/29 05:13:04;;;;;;;4.93;2.03;;;;;;;-0.14;41.11;95490.06;4986306;28;20325;-91
2022/01/29 05:28:59;;;;;;;6.80;1.63;;;;;;;-0.30;40.04;95525.25;5022119;28;20036;-92
2022/01/29 05:31:24;;;;;;;3.03;1.40;;;;;;;-0.31;39.88;95520.25;5019287;28;20033;-91
2022/01/29 05:33:50;;;;;;;3.45;1.90;;;;;;;-0.36;39.90;95523.38;5019204;28;20073;-91
2022/01/29 05:36:18;;;;;;;5.18;1.77;;;;;;;-0.32;40.11;95516.09;5003133;28;20029;-91
2022/01/29 05:38:44;;;;;;;3.88;1.90;;;;;;;-0.16;41.96;95517.78;5003453;28;20088;-91
2022/01/29 05:41:09;;;;;;;8.85;2.00;;;;;;;-0.48;40.77;95510.06;5003194;28;20038;-91
2022/01/29 05:43:35;;;;;;;7.13;1.95;;;;;;;-0.51;41.21;95505.25;5003203;28;20037;-91
2022/01/29 05:46:01;;;;;;;5.85;2.20;;;;;;;-0.52;40.88;95513.94;5003017;28;20033;-91
2022/01/29 05:48:26;;;;;;;5.28;2.20;;;;;;;-0.44;42.30;95515.69;5003226;28;20029;-92
2022/01/29 05:50:52;;;;;;;4.22;2.20;;;;;;;-0.58;40.57;95520.56;5002855;28;20040;-92
2022/01/29 05:53:17;;;;;;;4.40;1.90;;;;;;;-0.40;40.03;95527.22;5019304;28;20037;-91
2022/01/29 05:55:43;;;;;;;7.95;2.92;;;;;;;-0.26;40.64;95530.88;5002805;28;20026;-91
2022/01/29 05:58:08;;;;;;;7.10;2.47;;;;;;;-0.37;42.08;95529.47;5003059;28;20040;-91
2022/01/29 06:00:34;;;;;;;5.68;2.33;;;;;;;-0.43;40.94;95517.28;5002713;28;20029;-91
2022/01/29 06:03:08;;;;;;;6.72;2.50;;;;;;;-0.52;41.00;95516.53;5018807;28;20076;-93
2022/01/29 06:05:34;;;;;;;4.93;2.08;;;;;;;-0.62;41.96;95506.44;5018840;28;20025;-91
2022/01/29 06:07:59;;;;;;;7.00;2.53;;;;;;;-0.46;40.74;95510.69;5002663;28;20029;-91
2022/01/29 06:10:26;;;;;;;4.78;2.20;;;;;;;-0.38;40.69;95515.00;5019087;28;20029;-92
2022/01/29 06:12:59;;;;;;;8.38;2.20;;;;;;;-0.33;40.73;95519.63;5018758;28;20036;-93
2022/01/29 06:15:28;;;;;;;7.75;2.45;;;;;;;-0.20;39.45;95526.81;5010766;28;20054;-91
2022/01/29 06:17:54;;;;;;;5.75;1.98;;;;;;;-0.08;39.13;95529.78;4983745;28;20036;-91
2022/01/29 06:20:20;;;;;;;4.05;2.15;;;;;;;-0.20;39.67;95529.41;4983020;28;20036;-91
2022/01/29 06:22:45;;;;;;;6.30;2.15;;;;;;;-0.04;41.32;95533.63;5016662;28;20382;-92
2022/01/29 06:25:11;;;;;;;6.25;2.20;;;;;;;-0.21;41.76;95531.16;4999042;28;20030;-92
2022/01/29 06:27:36;;;;;;;5.30;1.92;;;;;;;-0.17;40.24;95542.72;4983427;28;20037;-91
2022/01/29 06:30:03;;;;;;;5.18;2.00;;;;;;;-0.21;39.74;95531.16;4999139;28;20029;-91
2022/01/29 06:32:28;;;;;;;4.57;1.92;;;;;;;-0.29;42.63;95528.63;5001659;28;20041;-91
2022/01/29 06:34:55;;;;;;;5.00;1.80;;;;;;;-0.45;41.29;95525.16;4986603;28;20033;-91
2022/01/29 06:37:24;;;;;;;5.20;1.88;;;;;;;-0.33;39.33;95530.75;4986907;28;20037;-91
2022/01/29 06:39:49;;;;;;;9.10;2.90;;;;;;;-0.04;39.02;95537.00;5003086;28;20030;-91
2022/01/29 06:42:15;;;;;;;4.93;1.73;;;;;;;0.10;38.65;95540.59;5003104;28;20446;-91
2022/01/29 06:44:40;;;;;;;3.78;1.75;;;;;;;0.46;37.56;95530.69;4986578;28;20026;-91
2022/01/29 06:47:06;;;;;;;7.07;2.22;;;;;;;0.45;37.73;95529.09;4986531;28;20030;-91
2022/01/29 06:49:32;;;;;;;4.53;1.45;;;;;;;0.45;37.92;95532.44;5002489;28;20080;-91
2022/01/29 06:51:57;;;;;;;6.55;2.20;;;;;;;0.60;38.15;95537.66;4986359;28;20048;-92
2022/01/29 06:54:23;;;;;;;5.55;1.98;;;;;;;0.65;37.57;95534.53;5002466;28;20331;-91
2022/01/29 06:56:48;;;;;;;6.43;1.88;;;;;;;0.60;39.39;95534.25;5002312;28;20120;-91
2022/01/29 06:59:14;;;;;;;5.25;2.38;;;;;;;0.60;37.70;95535.06;4986270;28;20030;-91
2022/01/29 07:01:39;;;;;;;5.90;2.03;;;;;;;0.89;37.54;95541.25;4986281;28;20026;-92
2022/01/29 07:04:05;;;;;;;4.82;1.67;;;;;;;1.04;37.11;95536.06;5002185;28;20030;-91
2022/01/29 07:06:32;;;;;;;4.88;2.03;;;;;;;0.82;37.04;95537.75;5002230;28;20029;-91
2022/01/29 07:08:58;;;;;;;5.30;2.22;;;;;;;0.76;37.76;95541.06;5002174;28;20065;-91
2022/01/29 07:11:24;;;;;;;5.32;2.17;;;;;;;0.77;37.83;95543.44;5002143;28;20026;-91
2022/01/29 07:14:02;;;;;;;6.70;2.35;;;;;;;1.08;37.06;95541.69;5002020;28;20034;-91
2022/01/29 07:16:31;;;;;;;6.50;2.00;;;;;;;1.25;37.06;95553.44;5003650;28;20525;-91
2022/01/29 07:18:57;;;;;;;3.10;1.73;;;;;;;0.98;36.80;95554.84;5002016;28;20029;-91
2022/01/29 07:21:22;;;;;;;4.20;1.70;;;;;;;0.84;40.25;95556.44;5001902;28;20083;-92
2022/01/29 07:23:48;;;;;;;4.43;1.88;;;;;;;0.72;41.80;95555.25;5002125;28;20033;-92
2022/01/29 07:26:13;;;;;;;6.10;1.92;;;;;;;0.54;39.90;95557.19;4986057;28;20037;-92
2022/01/29 07:28:39;;;;;;;5.72;2.17;;;;;;;0.58;39.40;95565.41;5001779;28;20036;-91
2022/01/29 07:31:05;;;;;;;8.43;2.67;;;;;;;0.77;39.11;95551.19;5019279;28;20030;-89
2022/01/29 07:33:31;;;;;;;4.38;2.10;;;;;;;1.02;40.27;95550.94;5001737;28;20037;-88
2022/01/29 07:35:56;;;;;;;7.72;2.78;;;;;;;1.17;40.38;95543.22;5001934;28;20026;-89
2022/01/29 07:38:22;;;;;;;5.82;2.40;;;;;;;1.32;40.21;95534.66;5001496;28;20030;-89
2022/01/29 07:40:47;;;;;;;5.72;2.10;;;;;;;1.50;41.53;95544.56;5019074;28;20034;-89
2022/01/29 07:43:13;;;;;;;4.07;1.83;;;;;;;1.70;41.09;95542.22;5000688;28;20368;-89
2022/01/29 07:45:38;;;;;;;8.02;2.72;;;;;;;1.88;42.97;95538.47;5001936;28;20096;-89
2022/01/29 07:48:04;;;;;;;9.05;2.15;;;;;;;1.84;41.29;95538.81;5001668;28;20065;-89
2022/01/29 07:50:30;;;;;;;8.88;2.47;;;;;;;2.05;39.66;95528.66;4985339;28;20022;-89
2022/01/29 07:52:57;;;;;;;4.03;1.80;;;;;;;2.02;43.50;95534.22;5001724;28;20084;-89
2022/01/29 07:55:23;;;;;;;4.05;1.77;;;;;;;2.07;43.08;95539.63;4985698;28;20032;-89
2022/01/29 07:57:49;;;;;;;6.20;2.53;;;;;;;2.31;43.36;95529.91;5001814;28;20030;-89
2022/01/29 08:00:15;;;;;;;6.35;2.67;;;;;;;2.42;44.84;95537.16;5019023;28;20347;-89
2022/01/29 08:02:40;;;;;;;7.18;2.30;;;;;;;2.43;44.17;95531.00;5001271;28;20033;-90
2022/01/29 08:05:06;;;;;;;6.85;2.65;;;;;;;2.51;44.75;95536.03;5001641;28;20439;-90
2022/01/29 08:07:31;;;;;;;4.85;2.00;;;;;;;2.46;41.63;95540.19;5001286;28;20030;-91
2022/01/29 08:09:57;;;;;;;5.70;2.05;;;;;;;2.39;41.60;95543.50;5000863;28;20041;-90
2022/01/29 08:12:22;;;;;;;6.30;2.20;;;;;;;2.45;41.94;95544.53;5018385;28;20482;-91
2022/01/29 08:14:51;;;;;;;4.78;2.15;;;;;;;2.61;44.77;95542.66;5005991;28;20088;-90
2022/01/29 08:17:16;;;;;;;8.45;2.33;;;;;;;2.57;45.56;95557.75;5018067;28;20032;-92
2022/01/29 08:19:42;;;;;;;4.88;1.98;;;;;;;2.50;46.27;95555.13;5018343;28;20026;-91
2022/01/29 08:22:07;;;;;;;6.38;2.13;;;;;;;2.63;44.18;95557.03;5018662;28;20033;-91
2022/01/29 08:24:33;;;;;;;5.43;2.20;;;;;;;2.63;44.79;95553.63;5000953;28;20079;-90
2022/01/29 08:26:58;;;;;;;5.00;2.08;;;;;;;2.63;46.47;95557.03;5000547;28;20018;-90
2022/01/29 08:29:23;;;;;;;4.88;2.25;;;;;;;2.72;46.80;95567.22;5018019;28;20022;-90
2022/01/29 08:31:49;;;;;;;6.00;2.20;;;;;;;2.78;48.02;95567.28;5000483;28;20079;-89
2022/01/29 08:34:14;;;;;;;4.80;1.83;;;;;;;2.87;46.50;95567.97;5018538;28;20104;-90
2022/01/29 08:36:40;;;;;;;5.72;2.40;;;;;;;3.04;46.62;95573.63;5000397;28;20028;-90
2022/01/29 08:39:06;;;;;;;5.07;1.98;;;;;;;3.13;43.20;95570.91;5000419;28;20025;-90
2022/01/29 08:41:31;;;;;;;5.85;1.92;;;;;;;3.11;43.11;95577.06;5000109;28;20025;-90
2022/01/29 08:43:56;;;;;;;5.82;2.00;;;;;;;3.26;44.52;95573.56;5017950;28;20126;-91
2022/01/29 08:46:22;;;;;;;3.38;1.75;;;;;;;3.42;44.39;95569.84;5019795;28;20025;-90
2022/01/29 08:48:47;;;;;;;4.80;1.80;;;;;;;3.56;44.23;95575.09;5019814;28;20029;-90
2022/01/29 08:51:13;;;;;;;4.90;2.00;;;;;;;3.64;45.17;95572.34;5003794;28;20021;-90
2022/01/29 08:53:38;;;;;;;4.57;1.88;;;;;;;3.58;44.75;95575.69;5037288;28;20342;-91
2022/01/29 08:56:05;;;;;;;6.72;2.75;;;;;;;3.70;43.15;95570.78;5003615;28;20018;-91
2022/01/29 08:58:30;;;;;;;8.30;2.28;;;;;;;3.66;42.50;95578.94;5019739;28;20025;-90
2022/01/29 09:00:57;;;;;;;5.20;2.33;;;;;;;3.85;45.72;95578.41;5019611;28;20032;-91
2022/01/29 09:03:23;;;;;;;5.63;2.42;;;;;;;3.85;41.85;95570.63;5014373;28;20018;-90
2022/01/29 09:05:48;;;;;;;5.95;2.38;;;;;;;3.85;43.39;95574.03;5000002;28;20025;-91
2022/01/29 09:08:16;;;;;;;5.07;2.60;;;;;;;3.94;43.15;95572.06;4999928;28;20026;-90
2022/01/29 09:10:42;;;;;;;4.10;2.22;;;;;;;3.97;43.60;95579.44;5000039;28;20034;-91
2022/01/29 09:13:09;;;;;;;5.65;2.08;;;;;;;3.98;44.21;95572.47;5018532;28;20474;-90
2022/01/29 09:15:35;;;;;;;5.70;2.30;;;;;;;4.06;44.12;95573.09;5019444;28;20048;-91
2022/01/29 09:18:03;;;;;;;6.28;2.42;;;;;;;4.18;42.68;95573.31;5036926;28;20033;-90
2022/01/29 09:20:30;;;;;;;4.45;2.15;;;;;;;4.24;40.45;95566.53;5003080;28;20033;-91
2022/01/29 09:22:55;;;;;;;3.33;1.80;;;;;;;4.20;43.13;95568.72;5019368;28;20032;-91
2022/01/29 09:25:21;;;;;;;6.53;2.40;;;;;;;4.27;42.18;95579.09;5019240;28;20037;-90
2022/01/29 09:27:46;;;;;;;7.30;2.13;;;;;;;4.33;42.86;95580.94;5019573;28;20044;-90
2022/01/29 09:30:12;;;;;;;8.95;1.85;;;;;;;4.55;45.84;95580.75;5002845;28;20033;-90
2022/01/29 09:32:38;;;;;;;6.68;2.20;;;;;;;4.51;44.20;95584.72;5019900;28;20041;-89
2022/01/29 09:35:05;;;;;;;4.75;2.10;;;;;;;4.60;42.66;95591.34;5019893;28;20053;-90
2022/01/29 09:37:30;;;;;;;4.78;2.55;;;;;;;4.51;43.01;95595.91;5019100;28;20033;-90
2022/01/29 09:39:56;;;;;;;6.72;1.67;;;;;;;4.65;42.83;95588.94;5019068;28;20060;-89
2022/01/29 09:42:22;;;;;;;5.25;2.53;;;;;;;4.76;42.82;95582.34;5019565;28;20052;-90
2022/01/29 09:44:48;;;;;;;4.03;1.92;;;;;;;4.93;41.69;95582.75;5019081;28;20040;-90
2022/01/29 09:47:16;;;;;;;5.35;1.83;;;;;;;5.11;41.06;95589.13;5019055;28;20450;-90
2022/01/29 09:49:42;;;;;;;6.15;1.95;;;;;;;5.43;41.77;95584.03;5002748;28;20037;-89
2022/01/29 09:52:08;;;;;;;7.35;1.95;;;;;;;5.36;42.69;95597.06;5003242;28;20394;-90
2022/01/29 09:54:33;;;;;;;5.57;2.15;;;;;;;5.31;41.96;95590.91;5003032;28;20037;-89
2022/01/29 09:56:59;;;;;;;8.27;2.60;;;;;;;5.75;42.65;95589.38;5002959;28;20057;-90
2022/01/29 09:59:26;;;;;;;6.32;2.33;;;;;;;6.06;41.42;95597.44;5003038;28;20037;-90
2022/01/29 10:01:51;;;;;;;6.85;2.60;;;;;;;6.34;37.00;95597.09;5002906;28;20064;-90
2022/01/29 10:04:17;;;;;;;5.57;2.53;;;;;;;6.12;39.57;95586.22;5002673;28;20411;-90
2022/01/29 10:06:45;;;;;;;6.30;2.30;;;;;;;6.19;41.36;95588.78;5004683;28;20029;-89
2022/01/29 10:09:12;;;;;;;4.30;2.10;;;;;;;6.24;38.55;95596.75;5023515;28;20029;-90
2022/01/29 10:11:38;;;;;;;5.35;1.85;;;;;;;6.39;43.23;95590.47;5022533;28;20041;-89
2022/01/29 10:14:05;;;;;;;3.83;1.90;;;;;;;6.46;41.90;95592.03;5007101;28;20025;-90
2022/01/29 10:16:32;;;;;;;4.47;2.08;;;;;;;6.36;40.52;95591.66;5022667;28;20155;-90
2022/01/29 10:19:00;;;;;;;4.05;1.73;;;;;;;6.25;40.18;95582.75;5006416;28;20485;-90
2022/01/29 10:21:29;;;;;;;5.70;2.17;;;;;;;6.20;38.56;95582.56;5022782;28;20029;-90
2022/01/29 10:24:07;;;;;;;4.65;1.77;;;;;;;6.38;37.49;95578.47;5022714;28;20026;-90
2022/01/29 10:26:40;;;;;;;6.70;2.13;;;;;;;6.45;35.73;95574.00;5040182;28;20036;-89
2022/01/29 10:29:18;;;;;;;3.85;2.00;;;;;;;6.83;34.64;95565.31;5040425;28;20021;-90
2022/01/29 10:31:49;;;;;;;6.20;2.20;;;;;;;7.07;32.46;95561.06;5022288;28;20071;-90
2022/01/29 10:34:18;;;;;;;5.30;2.13;;;;;;;7.84;33.70;95550.41;5006103;28;20037;-89
2022/01/29 10:36:44;;;;;;;4.05;2.05;;;;;;;7.65;34.98;95553.06;5040236;28;20029;-90
2022/01/29 10:39:09;;;;;;;10.23;2.10;;;;;;;7.38;37.14;95553.34;5006398;28;20029;-89
2022/01/29 10:41:34;;;;;;;3.67;1.98;;;;;;;7.30;30.18;95554.44;5022379;28;20435;-89
2022/01/29 10:46:49;;;;;;;8.25;2.60;;;;;;;7.45;29.83;95533.22;5039999;28;20036;-89
2022/01/29 10:49:32;;;;;;;3.85;2.10;;;;;;;7.97;31.85;95531.97;5022435;28;20339;-89
2022/01/29 10:52:03;;;;;;;7.05;2.30;;;;;;;7.91;30.21;95530.28;5022508;28;20037;-89
2022/01/29 10:54:30;;;;;;;6.53;2.33;;;;;;;7.78;31.72;95528.63;5022180;28;20119;-89
2022/01/29 10:57:01;;;;;;;5.35;2.10;;;;;;;7.91;33.95;95531.06;5022141;28;20030;-90
2022/01/29 10:59:29;;;;;;;8.00;2.70;;;;;;;8.10;29.13;95533.59;5015426;28;20091;-90
2022/01/29 11:02:00;;;;;;;4.45;2.00;;;;;;;8.16;31.96;95524.09;5002183;28;20457;-90
2022/01/29 11:04:28;;;;;;;5.97;2.22;;;;;;;8.09;30.30;95524.19;4986134;28;20117;-90
2022/01/29 11:06:55;;;;;;;4.38;2.08;;;;;;;8.05;31.82;95512.59;5002400;28;20109;-89
2022/01/29 11:09:21;;;;;;;4.95;2.35;;;;;;;8.31;31.60;95523.69;5002454;28;20030;-90
2022/01/29 11:11:47;;;;;;;5.00;2.55;;;;;;;8.20;30.61;95518.22;5001879;28;20025;-90
2022/01/29 11:14:16;;;;;;;6.65;2.63;;;;;;;8.16;30.54;95511.03;5001858;28;20345;-90
2022/01/29 11:16:41;;;;;;;7.80;2.85;;;;;;;8.51;32.04;95520.00;5001964;28;20439;-90
2022/01/29 11:19:09;;;;;;;4.90;2.58;;;;;;;8.43;31.52;95518.47;5000718;28;20104;-90
2022/01/29 11:21:36;;;;;;;4.88;2.45;;;;;;;8.38;33.19;95513.16;5001789;28;20049;-90
2022/01/29 11:24:06;;;;;;;6.85;2.88;;;;;;;8.37;31.02;95507.13;5002144;28;20040;-90
2022/01/29 11:26:32;;;;;;;5.60;2.83;;;;;;;8.48;30.06;95498.50;5002384;28;20072;-90
2022/01/29 11:29:36;;;;;;;5.25;2.47;;;;;;;8.57;30.71;95495.59;5001773;28;20299;-89
2022/01/29 11:32:20;;;;;;;6.00;2.35;;;;;;;8.70;31.51;95490.16;4986132;28;20044;-90
2022/01/29 11:35:03;;;;;;;4.45;2.20;;;;;;;8.71;30.37;95499.59;5001730;28;20347;-89
2022/01/29 11:37:41;;;;;;;9.27;2.70;;;;;;;8.65;27.95;95494.47;5001888;28;20021;-90
2022/01/29 11:40:19;;;;;;;8.80;2.75;;;;;;;8.88;29.03;95498.91;5001748;28;20030;-90
2022/01/29 11:42:56;;;;;;;5.90;3.00;;;;;;;8.80;27.97;95488.78;4985431;28;20029;-90
2022/01/29 11:45:54;;;;;;;7.45;2.90;;;;;;;8.56;30.65;95480.94;5018901;28;20033;-90
2022/01/29 11:48:27;;;;;;;4.20;2.25;;;;;;;8.42;29.71;95482.94;5018989;28;20113;-89
2022/01/29 11:50:53;;;;;;;3.70;1.75;;;;;;;8.49;33.07;95481.03;5024008;28;20025;-89
2022/01/29 11:53:20;;;;;;;5.53;2.40;;;;;;;8.51;30.77;95478.22;5011515;28;20128;-90
2022/01/29 11:55:54;;;;;;;5.30;2.38;;;;;;;8.54;31.28;95475.94;4985173;28;20474;-89
2022/01/29 11:58:26;;;;;;;4.50;2.17;;;;;;;8.43;31.54;95469.66;5001439;28;20032;-88